sensor_id;sensor_type;location;lat;lon;timestamp;P1;durP1;ratioP1;P2;durP2;ratioP2
20146;SDS011;10234;50.856;15.716;2022-09-29T00:00:20;13.15;;;7.63;;
20146;SDS011;10234;50.856;15.716;2022-09-29T00:02:47;9.60;;;6.18;;
20146;SDS011;10234;50.856;15.716;2022-09-29T00:05:14;11.32;;;5.70;;
20146;SDS011;10234;50.856;15.716;2022-09-29T00:07:41;10.40;;;5.55;;
20146;SDS011;10234;50.856;15.716;2022-09-29T00:10:09;8.30;;;5.10;;
20146;SDS011;10234;50.856;15.716;2022-09-29T00:12:36;7.95;;;4.88;;
20146;SDS011;10234;50.856;15.716;2022-09-29T00:15:03;8.82;;;5.53;;
20146;SDS011;10234;50.856;15.716;2022-09-29T00:17:31;5.95;;;5.07;;
20146;SDS011;10234;50.856;15.716;2022-09-29T00:19:58;9.50;;;4.80;;
20146;SDS011;10234;50.856;15.716;2022-09-29T00:22:25;7.22;;;5.10;;
20146;SDS011;10234;50.856;15.716;2022-09-29T00:24:51;5.22;;;4.65;;
20146;SDS011;10234;50.856;15.716;2022-09-29T00:27:19;7.13;;;4.75;;
20146;SDS011;10234;50.856;15.716;2022-09-29T00:29:46;6.00;;;4.53;;
20146;SDS011;10234;50.856;15.716;2022-09-29T00:32:13;9.80;;;5.00;;
20146;SDS011;10234;50.856;15.716;2022-09-29T00:34:40;8.20;;;4.50;;
20146;SDS011;10234;50.856;15.716;2022-09-29T00:37:07;10.48;;;4.43;;
20146;SDS011;10234;50.856;15.716;2022-09-29T00:39:34;10.18;;;4.70;;
20146;SDS011;10234;50.856;15.716;2022-09-29T00:42:01;5.68;;;4.07;;
20146;SDS011;10234;50.856;15.716;2022-09-29T00:47:27;10.43;;;6.93;;
20146;SDS011;10234;50.856;15.716;2022-09-29T00:49:57;13.00;;;8.05;;
20146;SDS011;10234;50.856;15.716;2022-09-29T00:52:28;18.35;;;10.07;;
20146;SDS011;10234;50.856;15.716;2022-09-29T00:54:59;10.27;;;5.85;;
20146;SDS011;10234;50.856;15.716;2022-09-29T00:57:32;4.90;;;4.10;;
20146;SDS011;10234;50.856;15.716;2022-09-29T01:00:05;4.85;;;3.40;;
20146;SDS011;10234;50.856;15.716;2022-09-29T01:02:35;6.22;;;3.65;;
20146;SDS011;10234;50.856;15.716;2022-09-29T01:05:06;4.85;;;3.80;;
20146;SDS011;10234;50.856;15.716;2022-09-29T01:07:38;5.18;;;3.40;;
20146;SDS011;10234;50.856;15.716;2022-09-29T01:10:08;4.32;;;3.60;;
20146;SDS011;10234;50.856;15.716;2022-09-29T01:12:36;5.13;;;3.47;;
20146;SDS011;10234;50.856;15.716;2022-09-29T01:15:05;8.38;;;3.88;;
20146;SDS011;10234;50.856;15.716;2022-09-29T01:17:32;4.13;;;3.53;;
20146;SDS011;10234;50.856;15.716;2022-09-29T01:20:02;5.63;;;4.35;;
20146;SDS011;10234;50.856;15.716;2022-09-29T01:25:46;5.47;;;4.35;;
20146;SDS011;10234;50.856;15.716;2022-09-29T01:28:34;4.97;;;4.15;;
20146;SDS011;10234;50.856;15.716;2022-09-29T01:31:15;5.30;;;4.65;;
20146;SDS011;10234;50.856;15.716;2022-09-29T01:33:49;7.03;;;5.18;;
20146;SDS011;10234;50.856;15.716;2022-09-29T01:36:23;6.78;;;5.35;;
20146;SDS011;10234;50.856;15.716;2022-09-29T01:39:09;6.35;;;4.80;;
20146;SDS011;10234;50.856;15.716;2022-09-29T01:41:45;4.80;;;4.20;;
20146;SDS011;10234;50.856;15.716;2022-09-29T01:44:19;8.07;;;5.18;;
20146;SDS011;10234;50.856;15.716;2022-09-29T01:46:51;6.70;;;5.10;;
20146;SDS011;10234;50.856;15.716;2022-09-29T01:49:20;5.75;;;4.60;;
20146;SDS011;10234;50.856;15.716;2022-09-29T01:51:51;8.98;;;5.20;;
20146;SDS011;10234;50.856;15.716;2022-09-29T01:54:20;5.82;;;4.53;;
20146;SDS011;10234;50.856;15.716;2022-09-29T01:56:54;9.38;;;6.43;;
20146;SDS011;10234;50.856;15.716;2022-09-29T01:59:25;16.98;;;10.38;;
20146;SDS011;10234;50.856;15.716;2022-09-29T02:01:59;15.05;;;9.18;;
20146;SDS011;10234;50.856;15.716;2022-09-29T02:04:31;12.82;;;8.38;;
20146;SDS011;10234;50.856;15.716;2022-09-29T02:07:02;11.00;;;7.03;;
20146;SDS011;10234;50.856;15.716;2022-09-29T02:09:35;11.20;;;7.50;;
20146;SDS011;10234;50.856;15.716;2022-09-29T02:12:05;10.68;;;6.43;;
20146;SDS011;10234;50.856;15.716;2022-09-29T02:14:36;7.70;;;5.70;;
20146;SDS011;10234;50.856;15.716;2022-09-29T02:17:09;7.10;;;5.45;;
20146;SDS011;10234;50.856;15.716;2022-09-29T02:19:43;7.65;;;5.30;;
20146;SDS011;10234;50.856;15.716;2022-09-29T02:22:11;7.45;;;5.40;;
20146;SDS011;10234;50.856;15.716;2022-09-29T02:24:39;6.75;;;5.05;;
20146;SDS011;10234;50.856;15.716;2022-09-29T02:27:06;7.95;;;6.03;;
20146;SDS011;10234;50.856;15.716;2022-09-29T02:29:34;9.63;;;5.78;;
20146;SDS011;10234;50.856;15.716;2022-09-29T02:32:02;7.03;;;4.70;;
20146;SDS011;10234;50.856;15.716;2022-09-29T02:34:32;12.02;;;6.40;;
20146;SDS011;10234;50.856;15.716;2022-09-29T02:37:08;9.27;;;5.53;;
20146;SDS011;10234;50.856;15.716;2022-09-29T02:39:47;6.88;;;4.65;;
20146;SDS011;10234;50.856;15.716;2022-09-29T02:42:28;8.23;;;5.18;;
20146;SDS011;10234;50.856;15.716;2022-09-29T02:45:12;5.88;;;4.65;;
20146;SDS011;10234;50.856;15.716;2022-09-29T02:47:58;7.82;;;5.55;;
20146;SDS011;10234;50.856;15.716;2022-09-29T02:50:46;7.88;;;5.13;;
20146;SDS011;10234;50.856;15.716;2022-09-29T02:53:20;11.80;;;6.65;;
20146;SDS011;10234;50.856;15.716;2022-09-29T02:55:56;21.50;;;11.50;;
20146;SDS011;10234;50.856;15.716;2022-09-29T02:58:29;16.02;;;10.02;;
20146;SDS011;10234;50.856;15.716;2022-09-29T03:01:01;19.33;;;10.02;;
20146;SDS011;10234;50.856;15.716;2022-09-29T03:03:29;17.15;;;8.13;;
20146;SDS011;10234;50.856;15.716;2022-09-29T03:05:57;12.77;;;7.35;;
20146;SDS011;10234;50.856;15.716;2022-09-29T03:08:24;13.88;;;7.35;;
20146;SDS011;10234;50.856;15.716;2022-09-29T03:10:51;17.75;;;6.95;;
20146;SDS011;10234;50.856;15.716;2022-09-29T03:13:18;10.13;;;7.07;;
20146;SDS011;10234;50.856;15.716;2022-09-29T03:15:45;14.55;;;8.43;;
20146;SDS011;10234;50.856;15.716;2022-09-29T03:18:12;14.40;;;8.80;;
20146;SDS011;10234;50.856;15.716;2022-09-29T03:20:39;36.67;;;15.38;;
20146;SDS011;10234;50.856;15.716;2022-09-29T03:23:08;46.55;;;23.95;;
20146;SDS011;10234;50.856;15.716;2022-09-29T03:25:34;31.92;;;16.50;;
20146;SDS011;10234;50.856;15.716;2022-09-29T03:28:01;19.42;;;10.32;;
20146;SDS011;10234;50.856;15.716;2022-09-29T03:30:28;18.77;;;9.05;;
20146;SDS011;10234;50.856;15.716;2022-09-29T03:32:55;12.50;;;7.05;;
20146;SDS011;10234;50.856;15.716;2022-09-29T03:35:21;11.23;;;6.72;;
20146;SDS011;10234;50.856;15.716;2022-09-29T03:37:49;27.23;;;7.25;;
20146;SDS011;10234;50.856;15.716;2022-09-29T03:40:17;29.27;;;8.55;;
20146;SDS011;10234;50.856;15.716;2022-09-29T03:42:44;44.92;;;9.38;;
20146;SDS011;10234;50.856;15.716;2022-09-29T03:45:11;68.85;;;8.32;;
20146;SDS011;10234;50.856;15.716;2022-09-29T03:47:38;104.80;;;9.60;;
20146;SDS011;10234;50.856;15.716;2022-09-29T03:50:05;68.82;;;8.82;;
20146;SDS011;10234;50.856;15.716;2022-09-29T03:52:32;93.32;;;9.73;;
20146;SDS011;10234;50.856;15.716;2022-09-29T03:54:59;115.95;;;11.02;;
20146;SDS011;10234;50.856;15.716;2022-09-29T03:57:28;133.07;;;11.07;;
20146;SDS011;10234;50.856;15.716;2022-09-29T03:59:55;105.13;;;11.07;;
20146;SDS011;10234;50.856;15.716;2022-09-29T04:02:21;90.72;;;9.25;;
20146;SDS011;10234;50.856;15.716;2022-09-29T04:04:48;87.45;;;8.23;;
20146;SDS011;10234;50.856;15.716;2022-09-29T04:07:15;56.17;;;7.28;;
20146;SDS011;10234;50.856;15.716;2022-09-29T04:09:42;104.07;;;8.38;;
20146;SDS011;10234;50.856;15.716;2022-09-29T04:12:09;43.28;;;6.40;;
20146;SDS011;10234;50.856;15.716;2022-09-29T04:14:37;52.38;;;6.10;;
20146;SDS011;10234;50.856;15.716;2022-09-29T04:17:04;64.57;;;6.85;;
20146;SDS011;10234;50.856;15.716;2022-09-29T04:19:30;58.13;;;6.38;;
20146;SDS011;10234;50.856;15.716;2022-09-29T04:21:57;38.92;;;6.93;;
20146;SDS011;10234;50.856;15.716;2022-09-29T04:24:24;42.13;;;7.30;;
20146;SDS011;10234;50.856;15.716;2022-09-29T04:26:51;62.20;;;6.38;;
20146;SDS011;10234;50.856;15.716;2022-09-29T04:29:18;56.78;;;7.10;;
20146;SDS011;10234;50.856;15.716;2022-09-29T04:31:47;105.57;;;8.70;;
20146;SDS011;10234;50.856;15.716;2022-09-29T04:34:14;101.63;;;8.65;;
20146;SDS011;10234;50.856;15.716;2022-09-29T04:36:41;61.15;;;8.10;;
20146;SDS011;10234;50.856;15.716;2022-09-29T04:39:07;108.78;;;9.80;;
20146;SDS011;10234;50.856;15.716;2022-09-29T04:41:35;77.93;;;7.35;;
20146;SDS011;10234;50.856;15.716;2022-09-29T04:44:03;73.60;;;8.32;;
20146;SDS011;10234;50.856;15.716;2022-09-29T04:46:31;109.38;;;11.43;;
20146;SDS011;10234;50.856;15.716;2022-09-29T04:48:59;118.20;;;9.57;;
20146;SDS011;10234;50.856;15.716;2022-09-29T04:51:26;127.07;;;9.68;;
20146;SDS011;10234;50.856;15.716;2022-09-29T04:53:52;119.50;;;9.43;;
20146;SDS011;10234;50.856;15.716;2022-09-29T04:56:19;166.07;;;10.00;;
20146;SDS011;10234;50.856;15.716;2022-09-29T04:58:46;92.85;;;8.30;;
20146;SDS011;10234;50.856;15.716;2022-09-29T05:01:13;57.33;;;6.40;;
20146;SDS011;10234;50.856;15.716;2022-09-29T05:03:40;64.65;;;7.00;;
20146;SDS011;10234;50.856;15.716;2022-09-29T05:06:09;77.82;;;7.47;;
20146;SDS011;10234;50.856;15.716;2022-09-29T05:08:35;55.45;;;6.65;;
20146;SDS011;10234;50.856;15.716;2022-09-29T05:11:03;19.75;;;5.13;;
20146;SDS011;10234;50.856;15.716;2022-09-29T05:13:30;27.48;;;5.03;;
20146;SDS011;10234;50.856;15.716;2022-09-29T05:15:57;18.98;;;5.10;;
20146;SDS011;10234;50.856;15.716;2022-09-29T05:18:26;33.15;;;5.78;;
20146;SDS011;10234;50.856;15.716;2022-09-29T05:20:53;25.30;;;5.82;;
20146;SDS011;10234;50.856;15.716;2022-09-29T05:23:21;12.88;;;5.88;;
20146;SDS011;10234;50.856;15.716;2022-09-29T05:25:48;7.25;;;5.03;;
20146;SDS011;10234;50.856;15.716;2022-09-29T05:28:15;10.13;;;4.90;;
20146;SDS011;10234;50.856;15.716;2022-09-29T05:30:42;8.48;;;4.82;;
20146;SDS011;10234;50.856;15.716;2022-09-29T05:33:09;6.93;;;4.22;;
20146;SDS011;10234;50.856;15.716;2022-09-29T05:35:36;8.48;;;4.95;;
20146;SDS011;10234;50.856;15.716;2022-09-29T05:38:02;7.68;;;5.20;;
20146;SDS011;10234;50.856;15.716;2022-09-29T05:40:31;16.50;;;10.25;;
20146;SDS011;10234;50.856;15.716;2022-09-29T05:42:58;7.95;;;6.00;;
20146;SDS011;10234;50.856;15.716;2022-09-29T05:45:25;11.82;;;8.20;;
20146;SDS011;10234;50.856;15.716;2022-09-29T05:47:52;6.97;;;5.05;;
20146;SDS011;10234;50.856;15.716;2022-09-29T05:50:20;8.55;;;5.43;;
20146;SDS011;10234;50.856;15.716;2022-09-29T05:52:47;8.65;;;6.10;;
20146;SDS011;10234;50.856;15.716;2022-09-29T05:55:15;7.30;;;5.47;;
20146;SDS011;10234;50.856;15.716;2022-09-29T05:57:47;5.38;;;4.70;;
20146;SDS011;10234;50.856;15.716;2022-09-29T06:00:14;7.85;;;5.32;;
20146;SDS011;10234;50.856;15.716;2022-09-29T06:02:41;8.30;;;4.40;;
20146;SDS011;10234;50.856;15.716;2022-09-29T06:05:08;7.38;;;5.45;;
20146;SDS011;10234;50.856;15.716;2022-09-29T06:07:35;8.90;;;6.63;;
20146;SDS011;10234;50.856;15.716;2022-09-29T06:10:02;23.40;;;6.60;;
20146;SDS011;10234;50.856;15.716;2022-09-29T06:12:32;43.35;;;10.07;;
20146;SDS011;10234;50.856;15.716;2022-09-29T06:15:01;59.33;;;7.55;;
20146;SDS011;10234;50.856;15.716;2022-09-29T06:17:28;175.10;;;10.07;;
20146;SDS011;10234;50.856;15.716;2022-09-29T06:19:55;320.48;;;13.95;;
20146;SDS011;10234;50.856;15.716;2022-09-29T06:22:23;139.00;;;10.15;;
20146;SDS011;10234;50.856;15.716;2022-09-29T06:24:51;102.57;;;8.60;;
20146;SDS011;10234;50.856;15.716;2022-09-29T06:27:19;101.63;;;9.18;;
20146;SDS011;10234;50.856;15.716;2022-09-29T06:29:46;82.57;;;9.15;;
20146;SDS011;10234;50.856;15.716;2022-09-29T06:32:14;54.83;;;6.25;;
20146;SDS011;10234;50.856;15.716;2022-09-29T06:34:41;35.38;;;5.00;;
20146;SDS011;10234;50.856;15.716;2022-09-29T06:37:22;21.73;;;5.35;;
20146;SDS011;10234;50.856;15.716;2022-09-29T06:40:03;21.60;;;5.75;;
20146;SDS011;10234;50.856;15.716;2022-09-29T06:42:32;4.95;;;3.20;;
20146;SDS011;10234;50.856;15.716;2022-09-29T06:44:59;5.55;;;3.25;;
20146;SDS011;10234;50.856;15.716;2022-09-29T06:47:27;8.20;;;3.20;;
20146;SDS011;10234;50.856;15.716;2022-09-29T06:49:54;7.05;;;3.28;;
20146;SDS011;10234;50.856;15.716;2022-09-29T06:52:21;2.33;;;2.13;;
20146;SDS011;10234;50.856;15.716;2022-09-29T06:54:48;5.35;;;2.17;;
20146;SDS011;10234;50.856;15.716;2022-09-29T06:57:15;3.78;;;2.72;;
20146;SDS011;10234;50.856;15.716;2022-09-29T06:59:42;1.50;;;1.40;;
20146;SDS011;10234;50.856;15.716;2022-09-29T07:02:09;2.15;;;1.83;;
20146;SDS011;10234;50.856;15.716;2022-09-29T07:04:38;2.15;;;1.77;;
20146;SDS011;10234;50.856;15.716;2022-09-29T07:07:05;2.10;;;1.90;;
20146;SDS011;10234;50.856;15.716;2022-09-29T07:09:31;2.35;;;1.65;;
20146;SDS011;10234;50.856;15.716;2022-09-29T07:11:58;2.58;;;2.08;;
20146;SDS011;10234;50.856;15.716;2022-09-29T07:14:25;2.20;;;2.00;;
20146;SDS011;10234;50.856;15.716;2022-09-29T07:16:53;4.25;;;2.10;;
20146;SDS011;10234;50.856;15.716;2022-09-29T07:19:20;4.60;;;2.60;;
20146;SDS011;10234;50.856;15.716;2022-09-29T07:21:48;8.20;;;2.55;;
20146;SDS011;10234;50.856;15.716;2022-09-29T07:24:15;5.53;;;2.15;;
20146;SDS011;10234;50.856;15.716;2022-09-29T07:26:42;6.80;;;1.77;;
20146;SDS011;10234;50.856;15.716;2022-09-29T07:29:09;3.30;;;2.22;;
20146;SDS011;10234;50.856;15.716;2022-09-29T07:31:36;2.60;;;2.40;;
20146;SDS011;10234;50.856;15.716;2022-09-29T07:34:04;2.30;;;2.10;;
20146;SDS011;10234;50.856;15.716;2022-09-29T07:36:31;3.33;;;2.38;;
20146;SDS011;10234;50.856;15.716;2022-09-29T07:39:04;2.60;;;2.40;;
20146;SDS011;10234;50.856;15.716;2022-09-29T07:41:31;2.55;;;2.35;;
20146;SDS011;10234;50.856;15.716;2022-09-29T07:43:58;3.65;;;2.40;;
20146;SDS011;10234;50.856;15.716;2022-09-29T07:46:25;2.45;;;2.20;;
20146;SDS011;10234;50.856;15.716;2022-09-29T07:48:51;3.92;;;2.55;;
20146;SDS011;10234;50.856;15.716;2022-09-29T07:51:18;1.92;;;1.83;;
20146;SDS011;10234;50.856;15.716;2022-09-29T07:53:45;4.28;;;2.50;;
20146;SDS011;10234;50.856;15.716;2022-09-29T07:56:15;3.28;;;2.10;;
20146;SDS011;10234;50.856;15.716;2022-09-29T07:58:43;2.47;;;2.03;;
20146;SDS011;10234;50.856;15.716;2022-09-29T08:01:11;1.95;;;1.85;;
20146;SDS011;10234;50.856;15.716;2022-09-29T08:03:40;2.00;;;1.88;;
20146;SDS011;10234;50.856;15.716;2022-09-29T08:06:08;2.58;;;2.25;;
20146;SDS011;10234;50.856;15.716;2022-09-29T08:08:36;5.65;;;2.20;;
20146;SDS011;10234;50.856;15.716;2022-09-29T08:11:04;2.13;;;1.92;;
20146;SDS011;10234;50.856;15.716;2022-09-29T08:13:33;2.95;;;2.00;;
20146;SDS011;10234;50.856;15.716;2022-09-29T08:16:02;5.43;;;2.80;;
20146;SDS011;10234;50.856;15.716;2022-09-29T08:18:31;3.63;;;2.67;;
20146;SDS011;10234;50.856;15.716;2022-09-29T08:20:59;2.58;;;2.38;;
20146;SDS011;10234;50.856;15.716;2022-09-29T08:23:26;2.78;;;2.42;;
20146;SDS011;10234;50.856;15.716;2022-09-29T08:25:58;3.13;;;2.80;;
20146;SDS011;10234;50.856;15.716;2022-09-29T08:28:26;4.60;;;2.53;;
20146;SDS011;10234;50.856;15.716;2022-09-29T08:30:55;3.42;;;2.53;;
20146;SDS011;10234;50.856;15.716;2022-09-29T08:33:23;2.40;;;1.83;;
20146;SDS011;10234;50.856;15.716;2022-09-29T08:35:54;1.17;;;0.90;;
20146;SDS011;10234;50.856;15.716;2022-09-29T08:38:22;1.05;;;0.95;;
20146;SDS011;10234;50.856;15.716;2022-09-29T08:40:49;0.93;;;0.70;;
20146;SDS011;10234;50.856;15.716;2022-09-29T08:43:17;0.80;;;0.80;;
20146;SDS011;10234;50.856;15.716;2022-09-29T08:45:48;0.63;;;0.63;;
20146;SDS011;10234;50.856;15.716;2022-09-29T08:48:25;0.50;;;0.50;;
20146;SDS011;10234;50.856;15.716;2022-09-29T08:50:57;0.80;;;0.80;;
20146;SDS011;10234;50.856;15.716;2022-09-29T08:53:27;2.38;;;0.80;;
20146;SDS011;10234;50.856;15.716;2022-09-29T08:55:59;0.55;;;0.55;;
20146;SDS011;10234;50.856;15.716;2022-09-29T08:58:28;0.45;;;0.45;;
20146;SDS011;10234;50.856;15.716;2022-09-29T09:01:01;0.70;;;0.70;;
20146;SDS011;10234;50.856;15.716;2022-09-29T09:06:40;0.82;;;0.60;;
20146;SDS011;10234;50.856;15.716;2022-09-29T09:12:16;0.50;;;0.50;;
20146;SDS011;10234;50.856;15.716;2022-09-29T09:14:52;6.32;;;0.70;;
20146;SDS011;10234;50.856;15.716;2022-09-29T09:17:38;0.90;;;0.82;;
20146;SDS011;10234;50.856;15.716;2022-09-29T09:20:21;0.80;;;0.80;;
20146;SDS011;10234;50.856;15.716;2022-09-29T09:22:56;0.70;;;0.70;;
20146;SDS011;10234;50.856;15.716;2022-09-29T09:25:27;0.85;;;0.68;;
20146;SDS011;10234;50.856;15.716;2022-09-29T09:28:05;0.70;;;0.70;;
20146;SDS011;10234;50.856;15.716;2022-09-29T09:30:40;0.98;;;0.70;;
20146;SDS011;10234;50.856;15.716;2022-09-29T09:33:15;0.80;;;0.80;;
20146;SDS011;10234;50.856;15.716;2022-09-29T09:35:53;0.80;;;0.80;;
20146;SDS011;10234;50.856;15.716;2022-09-29T09:38:24;1.35;;;0.80;;
20146;SDS011;10234;50.856;15.716;2022-09-29T09:40:59;1.08;;;0.95;;
20146;SDS011;10234;50.856;15.716;2022-09-29T09:43:28;0.80;;;0.80;;
20146;SDS011;10234;50.856;15.716;2022-09-29T09:46:01;1.45;;;1.10;;
20146;SDS011;10234;50.856;15.716;2022-09-29T09:48:40;1.65;;;1.10;;
20146;SDS011;10234;50.856;15.716;2022-09-29T09:51:17;1.65;;;1.17;;
20146;SDS011;10234;50.856;15.716;2022-09-29T09:53:55;1.33;;;0.98;;
20146;SDS011;10234;50.856;15.716;2022-09-29T09:56:34;1.13;;;1.02;;
20146;SDS011;10234;50.856;15.716;2022-09-29T09:59:19;1.45;;;0.80;;
20146;SDS011;10234;50.856;15.716;2022-09-29T10:01:55;0.80;;;0.80;;
20146;SDS011;10234;50.856;15.716;2022-09-29T10:04:23;2.05;;;1.10;;
20146;SDS011;10234;50.856;15.716;2022-09-29T10:06:51;1.00;;;1.00;;
20146;SDS011;10234;50.856;15.716;2022-09-29T10:09:18;0.90;;;0.90;;
20146;SDS011;10234;50.856;15.716;2022-09-29T10:11:45;0.70;;;0.70;;
20146;SDS011;10234;50.856;15.716;2022-09-29T10:14:13;1.20;;;0.90;;
20146;SDS011;10234;50.856;15.716;2022-09-29T10:16:43;1.27;;;0.90;;
20146;SDS011;10234;50.856;15.716;2022-09-29T10:19:11;1.13;;;1.02;;
20146;SDS011;10234;50.856;15.716;2022-09-29T10:21:40;1.33;;;1.23;;
20146;SDS011;10234;50.856;15.716;2022-09-29T10:24:19;0.85;;;0.85;;
20146;SDS011;10234;50.856;15.716;2022-09-29T10:26:49;1.42;;;0.88;;
20146;SDS011;10234;50.856;15.716;2022-09-29T10:29:22;1.75;;;1.50;;
20146;SDS011;10234;50.856;15.716;2022-09-29T10:31:58;1.50;;;1.40;;
20146;SDS011;10234;50.856;15.716;2022-09-29T10:34:27;2.00;;;1.23;;
20146;SDS011;10234;50.856;15.716;2022-09-29T10:36:56;1.77;;;1.45;;
20146;SDS011;10234;50.856;15.716;2022-09-29T10:39:29;1.92;;;1.75;;
20146;SDS011;10234;50.856;15.716;2022-09-29T10:42:12;1.67;;;1.42;;
20146;SDS011;10234;50.856;15.716;2022-09-29T10:44:42;2.85;;;1.48;;
20146;SDS011;10234;50.856;15.716;2022-09-29T10:47:12;2.80;;;1.50;;
20146;SDS011;10234;50.856;15.716;2022-09-29T10:49:40;2.85;;;1.40;;
20146;SDS011;10234;50.856;15.716;2022-09-29T10:52:15;1.80;;;1.70;;
20146;SDS011;10234;50.856;15.716;2022-09-29T10:54:51;1.55;;;1.20;;
20146;SDS011;10234;50.856;15.716;2022-09-29T10:57:24;1.50;;;1.40;;
20146;SDS011;10234;50.856;15.716;2022-09-29T10:59:53;1.48;;;1.38;;
20146;SDS011;10234;50.856;15.716;2022-09-29T11:02:23;1.60;;;1.45;;
20146;SDS011;10234;50.856;15.716;2022-09-29T11:04:53;2.22;;;1.88;;
20146;SDS011;10234;50.856;15.716;2022-09-29T11:07:24;1.70;;;1.50;;
20146;SDS011;10234;50.856;15.716;2022-09-29T11:09:51;1.55;;;1.45;;
20146;SDS011;10234;50.856;15.716;2022-09-29T11:12:31;1.40;;;1.30;;
20146;SDS011;10234;50.856;15.716;2022-09-29T11:15:07;1.27;;;1.20;;
20146;SDS011;10234;50.856;15.716;2022-09-29T11:17:48;1.77;;;1.55;;
20146;SDS011;10234;50.856;15.716;2022-09-29T11:20:17;2.38;;;1.30;;
20146;SDS011;10234;50.856;15.716;2022-09-29T11:26:06;1.40;;;1.17;;
20146;SDS011;10234;50.856;15.716;2022-09-29T11:31:38;1.98;;;1.30;;
20146;SDS011;10234;50.856;15.716;2022-09-29T11:34:30;3.22;;;2.28;;
20146;SDS011;10234;50.856;15.716;2022-09-29T11:37:16;1.95;;;1.45;;
20146;SDS011;10234;50.856;15.716;2022-09-29T11:39:55;1.95;;;1.25;;
20146;SDS011;10234;50.856;15.716;2022-09-29T11:42:32;1.42;;;1.33;;
20146;SDS011;10234;50.856;15.716;2022-09-29T11:45:09;1.77;;;1.65;;
20146;SDS011;10234;50.856;15.716;2022-09-29T11:50:49;1.30;;;1.20;;
20146;SDS011;10234;50.856;15.716;2022-09-29T11:53:26;1.55;;;1.42;;
20146;SDS011;10234;50.856;15.716;2022-09-29T11:56:09;2.13;;;1.20;;
20146;SDS011;10234;50.856;15.716;2022-09-29T11:58:54;1.63;;;1.30;;
20146;SDS011;10234;50.856;15.716;2022-09-29T12:01:29;5.63;;;1.45;;
20146;SDS011;10234;50.856;15.716;2022-09-29T12:04:13;0.95;;;0.95;;
20146;SDS011;10234;50.856;15.716;2022-09-29T12:06:52;2.28;;;0.98;;
20146;SDS011;10234;50.856;15.716;2022-09-29T12:09:25;2.00;;;1.02;;
20146;SDS011;10234;50.856;15.716;2022-09-29T12:12:24;0.98;;;0.90;;
20146;SDS011;10234;50.856;15.716;2022-09-29T12:15:09;1.48;;;1.17;;
20146;SDS011;10234;50.856;15.716;2022-09-29T12:17:45;0.90;;;0.90;;
20146;SDS011;10234;50.856;15.716;2022-09-29T12:20:17;1.17;;;1.05;;
20146;SDS011;10234;50.856;15.716;2022-09-29T12:22:48;1.00;;;1.00;;
20146;SDS011;10234;50.856;15.716;2022-09-29T12:25:16;1.10;;;1.00;;
20146;SDS011;10234;50.856;15.716;2022-09-29T12:27:49;0.93;;;0.93;;
20146;SDS011;10234;50.856;15.716;2022-09-29T12:30:22;1.00;;;1.00;;
20146;SDS011;10234;50.856;15.716;2022-09-29T12:32:53;2.17;;;1.25;;
20146;SDS011;10234;50.856;15.716;2022-09-29T12:35:27;1.25;;;1.10;;
20146;SDS011;10234;50.856;15.716;2022-09-29T12:38:00;1.30;;;1.10;;
20146;SDS011;10234;50.856;15.716;2022-09-29T12:40:34;1.90;;;1.20;;
20146;SDS011;10234;50.856;15.716;2022-09-29T12:43:07;2.03;;;1.42;;
20146;SDS011;10234;50.856;15.716;2022-09-29T12:45:42;1.40;;;1.30;;
20146;SDS011;10234;50.856;15.716;2022-09-29T12:48:20;2.38;;;2.03;;
20146;SDS011;10234;50.856;15.716;2022-09-29T12:50:58;1.50;;;1.40;;
20146;SDS011;10234;50.856;15.716;2022-09-29T12:53:30;1.23;;;1.13;;
20146;SDS011;10234;50.856;15.716;2022-09-29T12:56:00;1.58;;;1.20;;
20146;SDS011;10234;50.856;15.716;2022-09-29T12:58:32;2.00;;;1.13;;
20146;SDS011;10234;50.856;15.716;2022-09-29T13:01:13;2.05;;;1.30;;
20146;SDS011;10234;50.856;15.716;2022-09-29T13:03:59;3.03;;;1.63;;
20146;SDS011;10234;50.856;15.716;2022-09-29T13:09:56;1.35;;;1.25;;
20146;SDS011;10234;50.856;15.716;2022-09-29T13:12:51;1.60;;;1.40;;
20146;SDS011;10234;50.856;15.716;2022-09-29T13:15:45;2.05;;;1.23;;
20146;SDS011;10234;50.856;15.716;2022-09-29T13:18:27;1.48;;;1.15;;
20146;SDS011;10234;50.856;15.716;2022-09-29T13:21:15;1.48;;;1.30;;
20146;SDS011;10234;50.856;15.716;2022-09-29T13:23:50;2.50;;;2.30;;
20146;SDS011;10234;50.856;15.716;2022-09-29T13:29:31;1.50;;;1.40;;
20146;SDS011;10234;50.856;15.716;2022-09-29T13:32:03;1.63;;;1.52;;
20146;SDS011;10234;50.856;15.716;2022-09-29T13:34:32;1.50;;;1.40;;
20146;SDS011;10234;50.856;15.716;2022-09-29T13:37:03;1.70;;;1.40;;
20146;SDS011;10234;50.856;15.716;2022-09-29T13:39:32;1.40;;;1.30;;
20146;SDS011;10234;50.856;15.716;2022-09-29T13:42:24;1.50;;;1.23;;
20146;SDS011;10234;50.856;15.716;2022-09-29T13:47:43;1.55;;;1.23;;
20146;SDS011;10234;50.856;15.716;2022-09-29T13:53:25;2.42;;;1.30;;
20146;SDS011;10234;50.856;15.716;2022-09-29T13:56:07;1.90;;;1.50;;
20146;SDS011;10234;50.856;15.716;2022-09-29T13:58:35;1.85;;;1.52;;
20146;SDS011;10234;50.856;15.716;2022-09-29T14:01:28;1.83;;;1.45;;
20146;SDS011;10234;50.856;15.716;2022-09-29T14:03:57;1.55;;;1.45;;
20146;SDS011;10234;50.856;15.716;2022-09-29T14:06:25;1.83;;;1.58;;
20146;SDS011;10234;50.856;15.716;2022-09-29T14:08:53;2.20;;;2.00;;
20146;SDS011;10234;50.856;15.716;2022-09-29T14:11:28;1.60;;;1.50;;
20146;SDS011;10234;50.856;15.716;2022-09-29T14:14:00;1.67;;;1.58;;
20146;SDS011;10234;50.856;15.716;2022-09-29T14:16:32;1.98;;;1.40;;
20146;SDS011;10234;50.856;15.716;2022-09-29T14:19:17;1.90;;;1.75;;
20146;SDS011;10234;50.856;15.716;2022-09-29T14:22:01;2.45;;;1.95;;
20146;SDS011;10234;50.856;15.716;2022-09-29T14:24:43;2.33;;;2.10;;
20146;SDS011;10234;50.856;15.716;2022-09-29T14:27:22;2.17;;;2.05;;
20146;SDS011;10234;50.856;15.716;2022-09-29T14:29:55;4.28;;;1.95;;
20146;SDS011;10234;50.856;15.716;2022-09-29T14:32:38;3.05;;;1.83;;
20146;SDS011;10234;50.856;15.716;2022-09-29T14:35:18;1.75;;;1.65;;
20146;SDS011;10234;50.856;15.716;2022-09-29T14:37:59;1.70;;;1.60;;
20146;SDS011;10234;50.856;15.716;2022-09-29T14:40:30;2.15;;;1.77;;
20146;SDS011;10234;50.856;15.716;2022-09-29T14:43:01;2.58;;;1.80;;
20146;SDS011;10234;50.856;15.716;2022-09-29T14:45:47;1.80;;;1.60;;
20146;SDS011;10234;50.856;15.716;2022-09-29T14:48:54;1.75;;;1.65;;
20146;SDS011;10234;50.856;15.716;2022-09-29T14:51:53;3.92;;;1.90;;
20146;SDS011;10234;50.856;15.716;2022-09-29T14:54:39;1.80;;;1.70;;
20146;SDS011;10234;50.856;15.716;2022-09-29T14:57:24;1.75;;;1.65;;
20146;SDS011;10234;50.856;15.716;2022-09-29T15:00:11;2.85;;;1.55;;
20146;SDS011;10234;50.856;15.716;2022-09-29T15:02:41;1.83;;;1.67;;
20146;SDS011;10234;50.856;15.716;2022-09-29T15:05:12;1.88;;;1.70;;
20146;SDS011;10234;50.856;15.716;2022-09-29T15:07:41;2.78;;;1.70;;
20146;SDS011;10234;50.856;15.716;2022-09-29T15:10:23;4.53;;;1.83;;
20146;SDS011;10234;50.856;15.716;2022-09-29T15:12:51;1.63;;;1.50;;
20146;SDS011;10234;50.856;15.716;2022-09-29T15:15:38;1.95;;;1.80;;
20146;SDS011;10234;50.856;15.716;2022-09-29T15:18:12;1.80;;;1.70;;
20146;SDS011;10234;50.856;15.716;2022-09-29T15:20:52;3.72;;;1.90;;
20146;SDS011;10234;50.856;15.716;2022-09-29T15:23:31;2.88;;;2.17;;
20146;SDS011;10234;50.856;15.716;2022-09-29T15:26:15;2.13;;;1.70;;
20146;SDS011;10234;50.856;15.716;2022-09-29T15:28:44;1.85;;;1.65;;
20146;SDS011;10234;50.856;15.716;2022-09-29T15:31:15;6.55;;;1.92;;